Last 24 Hours

Red Mountain

10 Minute Data | America/Los_Angeles
as of 1/30/23 9:46 AM PST
Date & Time Temp (°F) Dew Pt (°F) RH (%) Wind Spd (mph) Wind Dir (°) Wind Gust (mph) Wind Gst Dir (°) Daily Max Temp (°F) Daily Min Temp (°F)
1/30/23 - 0940 34.4 34.4 100 11.4 SW | 229 15.4 SW | 230 35.1 31.0
1/30/23 - 0930 33.7 33.6 100 14.9 SW | 232 19.8 SW | 235 33.9 31.0
1/30/23 - 0920 33.1 33.1 100 15.2 SW | 220 20.2 SW | 225 33.8 31.0
1/30/23 - 0910 32.8 32.8 100 13.9 SW | 225 17.8 SW | 217 33.8 31.0
1/30/23 - 0900 32.9 32.9 100 9.9 WSW | 241 15.9 SW | 230 33.8 31.0
1/30/23 - 0850 33.1 33.1 100 8.8 WSW | 240 12.4 WSW | 243 33.8 31.0
1/30/23 - 0840 33.2 33.2 100 6.7 SW | 231 9.0 WSW | 237 33.8 31.0
1/30/23 - 0830 33.5 33.5 100 5.7 WNW | 290 9.6 WNW | 282 33.8 31.0
1/30/23 - 0820 33.3 33.3 100 8.2 SW | 218 12.1 SW | 218 33.7 31.0
1/30/23 - 0810 33.4 33.4 100 10.5 SW | 222 13.7 SW | 222 33.7 31.0
1/30/23 - 0800 33.1 33.1 100 9.0 SW | 218 14.3 SW | 216 33.4 31.0
1/30/23 - 0750 32.2 32.1 100 8.2 SW | 215 10.4 SW | 219 32.6 31.0
1/30/23 - 0740 31.8 31.8 100 8.4 SSW | 200 10.8 SW | 222 32.6 31.0
1/30/23 - 0730 31.7 31.7 100 11.0 SSW | 206 14.8 SW | 216 32.6 31.0
1/30/23 - 0720 31.7 31.7 100 12.4 SSW | 206 15.0 SSW | 209 32.6 31.0
1/30/23 - 0710 31.6 31.6 100 13.9 SSW | 201 16.6 SSW | 192 32.6 31.0
1/30/23 - 0700 31.4 31.4 100 13.6 SSW | 192 16.2 SSW | 200 32.6 31.0
1/30/23 - 0650 31.3 31.3 100 12.6 S | 183 14.2 S | 185 32.6 31.0
1/30/23 - 0640 31.2 31.2 100 10.8 S | 186 12.9 S | 182 32.6 31.0
1/30/23 - 0630 31.4 31.4 100 11.3 SSW | 197 13.1 SSW | 196 32.6 31.0
1/30/23 - 0620 31.6 31.5 100 11.0 SSW | 206 12.3 SSW | 205 32.6 31.0
1/30/23 - 0610 31.5 31.4 100 9.2 SSW | 209 11.5 SSW | 209 32.6 31.0
1/30/23 - 0600 31.2 31.2 100 8.3 SSW | 207 9.4 SW | 214 32.6 31.0
1/30/23 - 0550 31.1 31.1 100 9.2 SSW | 212 10.6 SSW | 210 32.6 31.0
1/30/23 - 0540 31.2 31.2 100 10.4 SW | 218 11.8 SW | 216 32.6 31.0
1/30/23 - 0530 31.3 31.3 100 10.8 SSW | 211 12.2 SSW | 204 32.6 31.0
1/30/23 - 0520 31.4 31.4 100 11.5 SW | 216 12.9 SW | 217 32.6 31.0
1/30/23 - 0510 31.4 31.4 100 11.0 SSW | 210 13.4 SW | 215 32.6 31.0
1/30/23 - 0500 31.4 31.4 100 9.3 SSW | 202 11.2 SSW | 202 32.6 31.0
1/30/23 - 0450 31.3 31.3 100 9.1 SSW | 204 10.9 SSW | 202 32.6 31.0
1/30/23 - 0440 31.2 31.2 100 7.8 SSW | 207 10.4 SSW | 203 32.6 31.0
1/30/23 - 0430 31.1 31.1 100 5.4 SSW | 206 8.5 SSW | 213 32.6 31.0
1/30/23 - 0420 31.0 31.0 100 5.2 SSW | 202 7.4 SSW | 201 32.6 31.0
1/30/23 - 0410 31.0 31.0 100 2.5 S | 174 4.7 S | 191 32.6 31.0
1/30/23 - 0400 31.2 31.1 100 3.0 S | 190 5.0 S | 186 32.6 31.0
1/30/23 - 0350 31.3 31.3 100 4.6 SSW | 208 6.6 SSW | 204 32.6 31.2
1/30/23 - 0340 31.5 31.4 100 4.9 SSW | 204 6.3 SSW | 206 32.6 31.2
1/30/23 - 0330 31.6 31.5 100 4.6 SSW | 211 5.4 SW | 218 32.6 31.2
1/30/23 - 0320 31.6 31.5 100 4.4 WSW | 246 5.8 WNW | 289 32.6 31.2
1/30/23 - 0310 31.6 31.5 100 6.2 WNW | 283 7.7 WNW | 288 32.6 31.2
1/30/23 - 0300 31.5 31.5 100 6.9 WNW | 283 8.2 WNW | 283 32.6 31.2
1/30/23 - 0250 31.4 31.4 100 6.4 WNW | 287 8.3 WNW | 289 32.6 31.2
1/30/23 - 0240 31.3 31.3 100 7.8 WNW | 291 11.6 WNW | 295 32.6 31.2
1/30/23 - 0230 31.4 31.3 100 8.8 WNW | 300 14.1 WNW | 297 32.6 31.3
1/30/23 - 0220 31.5 31.4 100 7.7 NW | 305 11.5 NW | 308 32.6 31.4
1/30/23 - 0210 31.6 31.6 100 7.0 NW | 308 10.3 NNW | 329 32.6 31.6
1/30/23 - 0200 31.7 31.7 100 8.3 NW | 314 15.3 NW | 318 32.6 31.7
1/30/23 - 0150 31.8 31.8 100 12.7 NW | 318 20.8 NW | 324 32.6 31.7
1/30/23 - 0140 31.7 31.7 100 13.9 NW | 324 21.6 NW | 318 32.6 31.7
1/30/23 - 0130 31.7 31.7 100 13.6 NW | 316 20.6 NW | 321 32.6 31.7
1/30/23 - 0120 31.9 31.9 100 10.5 NW | 309 17.6 NNW | 336 32.6 31.7
1/30/23 - 0110 31.8 31.8 100 11.4 NW | 315 18.9 NW | 322 32.6 31.7
1/30/23 - 0100 31.8 31.8 100 15.8 NW | 321 23.8 NW | 318 32.6 31.7
1/30/23 - 0050 32.1 32.1 100 12.9 NW | 324 18.8 NW | 322 32.6 31.8
1/30/23 - 0040 32.4 32.4 100 12.6 NNW | 336 16.7 NNW | 343 32.6 32.0
1/30/23 - 0030 32.5 32.5 100 12.9 N | 350 21.2 N | 350 32.6 32.0
1/30/23 - 0020 32.4 32.4 100 12.5 N | 354 16.9 N | 354 32.5 32.0
1/30/23 - 0010 32.2 32.2 100 15.4 N | 350 22.4 N | 352 32.5 32.0
1/30/23 - 0000 32.2 32.1 100 15.0 N | 355 22.3 N | 353 36.4 31.2
1/29/23 - 2350 32.4 32.3 100 14.1 N | 355 21.3 N | 3 36.4 31.2
1/29/23 - 2340 32.6 32.6 100 14.4 N | 354 20.2 NNW | 334 36.4 31.2
1/29/23 - 2330 32.5 32.5 100 16.4 N | 352 22.3 N | 352 36.4 31.2
1/29/23 - 2320 32.5 32.5 100 17.9 N | 353 24.5 N | 354 36.4 31.2
1/29/23 - 2310 32.2 32.2 100 17.7 N | 355 26.0 N | 353 36.4 31.2
1/29/23 - 2300 32.7 32.7 100 12.3 N | 352 21.7 NNW | 337 36.4 31.2
1/29/23 - 2250 32.6 32.6 100 15.4 N | 349 20.5 NNW | 344 36.4 31.2
1/29/23 - 2240 32.6 32.6 100 16.0 N | 350 21.0 NNW | 348 36.4 31.2
1/29/23 - 2230 32.4 32.4 100 16.1 N | 353 22.1 N | 354 36.4 31.2
1/29/23 - 2220 32.2 32.2 100 17.9 NNW | 346 23.0 NNW | 340 36.4 31.2
1/29/23 - 2210 32.2 32.2 100 16.0 N | 350 22.9 N | 0 36.4 31.2
1/29/23 - 2200 32.2 32.2 100 17.1 NNW | 340 23.2 NNW | 345 36.4 31.2
1/29/23 - 2150 32.3 32.3 100 14.9 N | 352 23.4 NNW | 348 36.4 31.2
1/29/23 - 2140 32.4 32.4 100 13.9 N | 352 22.1 NNW | 346 36.4 31.2
1/29/23 - 2130 32.2 32.2 100 11.9 N | 356 17.4 N | 0 36.4 31.2
1/29/23 - 2120 32.3 32.2 100 11.8 N | 358 17.3 N | 3 36.4 31.2
1/29/23 - 2110 32.3 32.3 100 14.0 N | 352 21.0 N | 350 36.4 31.2
1/29/23 - 2100 32.3 32.3 100 14.9 N | 353 20.8 N | 350 36.4 31.2
1/29/23 - 2050 32.4 32.4 100 13.2 N | 351 20.7 NNW | 340 36.4 31.2
1/29/23 - 2040 32.6 32.6 100 13.0 N | 360 16.5 N | 3 36.4 31.2
1/29/23 - 2030 32.0 32.0 100 9.0 N | 356 16.0 N | 354 36.4 31.2
1/29/23 - 2020 31.7 31.7 100 9.1 NNW | 345 11.6 N | 350 36.4 31.2
1/29/23 - 2010 31.9 31.9 100 6.0 N | 356 9.8 N | 354 36.4 31.2
1/29/23 - 2000 32.1 32.1 100 6.0 N | 356 11.8 N | 2 36.4 31.2
1/29/23 - 1950 32.2 32.2 100 3.9 NNW | 345 9.8 NNW | 336 36.4 31.2
1/29/23 - 1940 32.4 32.4 100 6.3 N | 355 11.4 N | 0 36.4 31.2
1/29/23 - 1930 32.0 32.0 100 12.1 N | 356 19.9 N | 352 36.4 31.2
1/29/23 - 1920 31.7 31.6 100 16.3 N | 352 22.7 NNW | 348 36.4 31.2
1/29/23 - 1910 32.6 32.6 100 16.8 N | 353 24.6 N | 354 36.4 32.0
1/29/23 - 1900 32.7 32.7 100 19.5 N | 350 27.1 N | 354 36.4 32.5
1/29/23 - 1850 33.3 33.2 100 17.4 N | 354 29.7 N | 1 36.4 32.8
1/29/23 - 1840 33.1 33.1 100 19.0 N | 354 30.8 W | 265 36.4 32.8
1/29/23 - 1830 33.1 33.1 100 20.3 N | 357 31.6 N | 0 36.4 33.0
1/29/23 - 1820 33.3 33.3 100 21.7 N | 360 31.6 N | 2 36.4 33.0
1/29/23 - 1810 33.3 33.3 100 19.1 N | 356 29.3 NNW | 347 36.4 33.0
1/29/23 - 1800 33.7 33.7 100 18.7 N | 354 29.3 NNW | 342 36.4 33.0
1/29/23 - 1750 34.1 34.0 100 17.7 N | 354 27.8 NNW | 334 36.4 33.0
1/29/23 - 1740 34.1 34.1 100 20.1 N | 351 32.6 N | 354 36.4 33.0
1/29/23 - 1730 34.2 34.2 100 19.6 N | 355 29.0 N | 0 36.4 33.0
1/29/23 - 1720 34.5 34.5 100 16.8 N | 357 26.9 N | 5 36.4 33.0
1/29/23 - 1710 34.6 34.6 100 16.4 N | 350 27.9 N | 350 36.4 33.0
1/29/23 - 1700 34.7 34.7 100 17.3 N | 351 28.1 N | 354 36.4 33.0
1/29/23 - 1650 34.8 34.8 100 13.8 N | 355 22.9 N | 351 36.4 33.0
1/29/23 - 1640 34.8 34.8 100 14.4 N | 352 22.9 NNW | 328 36.4 33.0
1/29/23 - 1630 34.8 34.8 100 21.3 NNW | 344 26.6 NNW | 339 36.4 33.0
1/29/23 - 1620 34.8 34.8 100 21.4 N | 350 29.2 N | 351 36.4 33.0
1/29/23 - 1610 34.8 34.8 100 20.5 N | 351 32.4 N | 0 36.4 33.0
1/29/23 - 1600 34.8 34.8 100 24.1 N | 359 31.9 NNW | 342 36.4 33.0
1/29/23 - 1550 35.0 35.0 100 22.0 N | 1 29.2 NNE | 14 36.4 33.0
1/29/23 - 1540 35.1 35.1 100 17.1 N | 357 25.3 N | 0 36.4 33.0
1/29/23 - 1530 35.0 35.0 100 20.6 N | 3 28.0 N | 4 36.4 33.0
1/29/23 - 1520 34.9 34.9 100 22.9 N | 0 30.1 N | 7 36.4 33.0
1/29/23 - 1510 35.0 35.0 100 18.9 N | 355 33.1 N | 0 36.4 33.0
1/29/23 - 1500 35.1 35.1 100 20.2 N | 356 31.3 N | 0 36.4 33.0
1/29/23 - 1450 35.0 35.0 100 22.8 N | 359 34.4 N | 1 36.4 33.0
1/29/23 - 1440 35.4 35.4 100 25.1 N | 359 34.4 N | 350 36.4 33.0
1/29/23 - 1430 35.9 35.9 100 19.3 N | 358 28.6 N | 2 36.4 33.0
1/29/23 - 1420 35.6 35.6 100 24.0 N | 352 33.8 N | 2 36.4 33.0
1/29/23 - 1410 35.5 35.5 100 24.7 N | 351 35.4 NNW | 346 36.4 33.0
1/29/23 - 1400 35.6 35.6 100 25.9 N | 351 37.5 NNW | 346 36.4 33.0
1/29/23 - 1350 35.6 35.6 100 28.8 NNW | 345 37.8 NNW | 345 36.4 33.0
1/29/23 - 1340 35.8 35.7 100 20.8 N | 352 35.2 NNW | 333 36.4 33.0
1/29/23 - 1330 35.5 35.5 100 17.7 N | 349 24.8 NNW | 345 36.4 33.0
1/29/23 - 1320 35.3 35.3 100 14.8 N | 352 20.8 N | 1 36.4 33.0
1/29/23 - 1310 35.5 35.5 100 14.1 N | 353 20.8 NNW | 342 36.4 33.0
1/29/23 - 1300 35.1 35.1 100 14.8 N | 350 21.6 NNW | 346 36.4 33.0
1/29/23 - 1250 35.0 35.0 100 14.8 NNW | 348 20.8 NNW | 346 36.4 33.0
1/29/23 - 1240 34.9 34.8 100 15.2 NNW | 340 20.0 NNW | 331 36.4 33.0
1/29/23 - 1230 34.8 34.7 100 16.2 NNW | 344 20.8 NNW | 339 36.4 33.0
1/29/23 - 1220 34.8 34.8 100 18.1 NNW | 344 23.3 N | 351 36.4 33.0
1/29/23 - 1210 35.0 35.0 100 16.9 NNW | 347 22.4 NNW | 343 36.4 33.0
1/29/23 - 1200 34.9 34.9 100 15.9 N | 350 22.4 N | 0 36.4 33.0
1/29/23 - 1150 34.9 34.9 100 16.4 NNW | 346 24.0 NNW | 329 36.4 33.0
1/29/23 - 1140 34.8 34.8 100 18.1 N | 350 25.7 NNW | 342 36.4 33.0
1/29/23 - 1130 34.9 34.9 100 16.4 NNW | 347 25.7 NNW | 328 36.4 33.0
1/29/23 - 1120 35.2 35.2 100 11.4 N | 357 21.1 N | 0 36.4 33.0
1/29/23 - 1110 35.2 35.2 100 12.2 NNW | 342 24.6 NNW | 328 36.4 33.0
1/29/23 - 1100 35.1 35.0 100 15.8 N | 351 24.8 NNW | 346 36.4 33.0
1/29/23 - 1050 34.9 34.9 100 15.4 NNW | 346 22.4 N | 351 36.4 33.0
1/29/23 - 1040 34.7 34.7 100 16.2 N | 352 23.0 NW | 326 36.4 33.0
1/29/23 - 1030 34.7 34.7 100 17.3 NNW | 346 22.1 NNW | 340 36.4 33.0
1/29/23 - 1020 34.6 34.6 100 18.2 NNW | 331 22.6 NW | 325 36.4 33.0
1/29/23 - 1010 34.7 34.7 100 17.5 NNW | 344 23.7 N | 354 36.4 33.0
1/29/23 - 1000 34.6 34.6 100 14.5 NNW | 342 23.1 NNW | 333 36.4 33.0
1/29/23 - 0950 34.5 34.5 100 16.4 NNW | 340 21.1 NW | 326 36.4 33.0
1/29/23 - 0940 34.6 34.6 100 12.9 NNW | 348 17.1 NNW | 347 36.4 33.0
Max 35.9 35.9 100 28.8 - 37.8 - 36.4 33.0
Avg 33.1 33.1 100 13.9 - 20.0 - - -
Min 31.0 31.0 100 2.5 - 4.7 - 32.5 31.0